Time;durP1;ratioP1;P1;durP2;ratioP2;P2;SDS_P1;SDS_P2;PMS_P1;PMS_P2;Temp;Humidity;BMP_temperature;BMP_pressure;BME280_temperature;BME280_humidity;BME280_pressure;Samples;Min_cycle;Max_cycle;Signal;HPM_P1;HPM_P2
2022/10/13 00:01:31;;;;;;;24.80;22.57;;;9.50;99.90;;;;;;4926359;28;20195;-81
2022/10/13 00:03:58;;;;;;;24.57;22.17;;;9.50;99.90;;;;;;4926584;29;20312;-81
2022/10/13 00:06:26;;;;;;;24.10;21.87;;;9.50;99.90;;;;;;4951196;28;20222;-81
2022/10/13 00:08:53;;;;;;;24.20;21.90;;;9.40;99.90;;;;;;4925982;29;20212;-81
2022/10/13 00:11:22;;;;;;;23.07;21.07;;;9.40;99.90;;;;;;4931022;29;20214;-81
2022/10/13 00:13:50;;;;;;;22.33;20.40;;;9.40;99.90;;;;;;4926327;29;20199;-81
2022/10/13 00:16:21;;;;;;;24.23;22.00;;;9.40;99.90;;;;;;4928494;29;20223;-81
2022/10/13 00:18:48;;;;;;;23.83;21.73;;;9.50;99.90;;;;;;4941001;29;20215;-81
2022/10/13 00:21:19;;;;;;;25.83;23.23;;;9.50;99.90;;;;;;4952720;28;20203;-81
2022/10/13 00:23:48;;;;;;;23.03;20.80;;;9.40;99.90;;;;;;4933741;29;20731;-81
2022/10/13 00:26:20;;;;;;;23.20;21.20;;;9.40;99.90;;;;;;4935166;28;20215;-81
2022/10/13 00:28:47;;;;;;;25.43;22.67;;;9.30;99.90;;;;;;4934044;29;20199;-81
2022/10/13 00:31:16;;;;;;;23.20;21.17;;;9.30;99.90;;;;;;4927828;29;20302;-81
2022/10/13 00:33:44;;;;;;;23.27;21.17;;;9.40;99.90;;;;;;4927925;29;20246;-81
2022/10/13 00:36:11;;;;;;;25.17;22.57;;;9.40;99.90;;;;;;4953269;28;20273;-81
2022/10/13 00:38:38;;;;;;;23.60;21.33;;;9.40;99.90;;;;;;4927698;29;20555;-81
2022/10/13 00:41:05;;;;;;;22.63;20.50;;;9.40;99.90;;;;;;4955651;28;20202;-81
2022/10/13 00:43:48;;;;;;;23.73;21.50;;;9.40;99.90;;;;;;4949411;28;20233;-81
2022/10/13 00:46:16;;;;;;;24.33;21.93;;;9.40;99.90;;;;;;4929458;29;20230;-81
2022/10/13 00:48:47;;;;;;;23.93;21.47;;;9.50;99.90;;;;;;4932206;29;20311;-81
2022/10/13 00:51:17;;;;;;;22.20;20.20;;;9.50;99.90;;;;;;4928268;29;20204;-81
2022/10/13 00:53:47;;;;;;;24.10;21.67;;;9.50;99.90;;;;;;4951374;28;20251;-81
2022/10/13 00:56:17;;;;;;;25.27;22.83;;;9.50;99.90;;;;;;4927317;28;20238;-81
2022/10/13 00:58:46;;;;;;;24.83;22.50;;;9.60;99.90;;;;;;4927029;29;20227;-81
2022/10/13 01:01:14;;;;;;;24.87;22.57;;;9.70;99.90;;;;;;4927447;29;20211;-81
2022/10/13 01:03:41;;;;;;;27.47;24.77;;;9.70;99.90;;;;;;4927713;29;20212;-81
2022/10/13 01:06:11;;;;;;;28.57;24.03;;;9.70;99.90;;;;;;4927884;29;20242;-81
2022/10/13 01:08:38;;;;;;;29.13;26.00;;;9.70;99.90;;;;;;4933315;29;20199;-81
2022/10/13 01:11:23;;;;;;;24.70;22.27;;;9.80;99.90;;;;;;4926329;29;20753;-81
2022/10/13 01:13:57;;;;;;;24.23;21.87;;;9.90;99.90;;;;;;4927060;29;20203;-81
2022/10/13 01:16:31;;;;;;;24.47;22.27;;;10.00;99.90;;;;;;4933737;29;20637;-81
2022/10/13 01:19:08;;;;;;;26.10;23.67;;;10.10;99.90;;;;;;4929189;29;20207;-81
2022/10/13 01:21:40;;;;;;;24.40;19.90;;;10.20;99.90;;;;;;4938133;29;20213;-81
2022/10/13 01:24:28;;;;;;;30.53;23.00;;;10.20;99.90;;;;;;4929950;29;20223;-80
2022/10/13 01:27:08;;;;;;;21.50;19.60;;;10.20;99.90;;;;;;4954131;28;20218;-81
2022/10/13 01:30:15;;;;;;;17.13;15.33;;;10.20;99.90;;;;;;4931629;29;20213;-81
2022/10/13 01:33:10;;;;;;;16.10;14.33;;;10.30;99.90;;;;;;4949647;28;20197;-81
2022/10/13 01:35:45;;;;;;;26.03;23.40;;;10.30;99.90;;;;;;4948303;28;20680;-82
2022/10/13 01:38:21;;;;;;;28.40;24.93;;;10.40;99.90;;;;;;4928897;29;20206;-82
2022/10/13 01:40:59;;;;;;;26.33;24.03;;;10.40;99.90;;;;;;4931380;29;20213;-81
2022/10/13 01:43:31;;;;;;;26.73;24.27;;;10.30;99.90;;;;;;4926779;29;20231;-81
2022/10/13 01:46:03;;;;;;;24.43;22.23;;;10.40;99.90;;;;;;4933390;29;20222;-81
2022/10/13 01:48:32;;;;;;;25.30;22.77;;;10.40;99.90;;;;;;4950150;28;20195;-81
2022/10/13 01:51:00;;;;;;;26.27;23.67;;;10.40;99.90;;;;;;4930940;29;20738;-81
2022/10/13 01:53:28;;;;;;;27.47;24.63;;;10.40;99.90;;;;;;4934454;28;20203;-81
2022/10/13 01:55:57;;;;;;;24.80;22.73;;;10.50;99.90;;;;;;4926394;29;20219;-81
2022/10/13 01:58:27;;;;;;;25.53;23.13;;;10.50;99.90;;;;;;4928842;28;20198;-81
2022/10/13 02:01:08;;;;;;;23.30;21.23;;;10.60;99.90;;;;;;4951362;29;20359;-80
2022/10/13 02:03:45;;;;;;;25.57;22.90;;;10.60;99.90;;;;;;4933506;29;20207;-81
2022/10/13 02:06:19;;;;;;;23.87;21.43;;;10.60;99.90;;;;;;4927678;29;20654;-81
2022/10/13 02:08:55;;;;;;;24.53;22.33;;;10.70;99.90;;;;;;4942900;29;20201;-81
2022/10/13 02:11:23;;;;;;;23.40;21.30;;;10.70;99.90;;;;;;4933308;29;20247;-82
2022/10/13 02:13:58;;;;;;;23.17;20.93;;;10.70;99.90;;;;;;4929497;29;20206;-81
2022/10/13 02:16:33;;;;;;;24.37;22.17;;;10.70;99.90;;;;;;4933853;29;20282;-81
2022/10/13 02:19:03;;;;;;;22.73;20.43;;;10.80;99.90;;;;;;4931097;29;20684;-81
2022/10/13 02:21:31;;;;;;;23.37;21.17;;;10.80;99.90;;;;;;4946269;28;20575;-81
2022/10/13 02:24:02;;;;;;;25.23;22.30;;;10.90;99.90;;;;;;4947219;28;20219;-81
2022/10/13 02:26:30;;;;;;;22.37;20.37;;;11.00;99.90;;;;;;4934137;29;20734;-81
2022/10/13 02:29:07;;;;;;;22.70;20.70;;;11.00;99.90;;;;;;4934001;29;20210;-81
2022/10/13 02:31:35;;;;;;;22.03;20.10;;;11.00;99.90;;;;;;4940250;29;20205;-81
2022/10/13 02:34:02;;;;;;;22.00;20.20;;;11.00;99.90;;;;;;4943242;28;20202;-81
2022/10/13 02:36:29;;;;;;;21.27;19.37;;;11.10;99.90;;;;;;4936880;28;20221;-81
2022/10/13 02:38:56;;;;;;;20.47;18.60;;;11.20;99.90;;;;;;4931401;29;20195;-81
2022/10/13 02:41:23;;;;;;;21.30;19.50;;;11.20;99.90;;;;;;4936480;29;20215;-84
2022/10/13 02:43:50;;;;;;;22.97;20.77;;;11.30;99.90;;;;;;4961379;28;20219;-80
2022/10/13 02:46:17;;;;;;;20.47;18.77;;;11.30;99.90;;;;;;4937518;29;20224;-81
2022/10/13 02:48:45;;;;;;;21.13;19.30;;;11.30;99.90;;;;;;4939323;29;20203;-81
2022/10/13 02:51:12;;;;;;;20.10;18.60;;;11.40;99.90;;;;;;4952994;28;20229;-82
2022/10/13 02:53:39;;;;;;;22.67;20.73;;;11.40;99.90;;;;;;4945339;28;20207;-84
2022/10/13 02:56:06;;;;;;;20.87;19.17;;;11.40;99.90;;;;;;4961531;29;20443;-83
2022/10/13 02:58:34;;;;;;;20.83;18.93;;;11.40;99.90;;;;;;4952266;29;20199;-84
2022/10/13 03:01:06;;;;;;;20.13;18.53;;;11.50;99.90;;;;;;4934008;29;20231;-84
2022/10/13 03:03:33;;;;;;;21.50;19.60;;;11.50;99.90;;;;;;4941817;29;20238;-82
2022/10/13 03:06:01;;;;;;;20.13;18.33;;;11.50;99.90;;;;;;4946561;29;20262;-83
2022/10/13 03:08:29;;;;;;;19.73;18.23;;;11.50;99.90;;;;;;4937628;29;20201;-84
2022/10/13 03:10:56;;;;;;;19.90;18.23;;;11.50;99.90;;;;;;4935566;29;20619;-84
2022/10/13 03:13:23;;;;;;;21.23;19.13;;;11.50;99.90;;;;;;4933097;29;20252;-83
2022/10/13 03:15:50;;;;;;;19.40;17.80;;;11.50;99.90;;;;;;4953642;28;20298;-85
2022/10/13 03:18:17;;;;;;;21.03;19.13;;;11.50;99.90;;;;;;4938358;29;20556;-83
2022/10/13 03:20:44;;;;;;;19.83;18.33;;;11.50;99.90;;;;;;4937289;29;20196;-83
2022/10/13 03:23:12;;;;;;;18.97;17.47;;;11.40;99.90;;;;;;4964388;28;20201;-84
2022/10/13 03:25:39;;;;;;;18.40;17.00;;;11.50;99.90;;;;;;4942532;29;20225;-86
2022/10/13 03:28:06;;;;;;;20.77;18.97;;;11.50;99.90;;;;;;4944491;29;20213;-85
2022/10/13 03:30:33;;;;;;;21.37;19.47;;;11.40;99.90;;;;;;4943251;29;20266;-84
2022/10/13 03:33:00;;;;;;;20.37;18.77;;;11.40;99.90;;;;;;4944965;29;20196;-84
2022/10/13 03:35:27;;;;;;;21.57;19.63;;;11.40;99.90;;;;;;4976128;28;20217;-84
2022/10/13 03:37:54;;;;;;;22.87;20.93;;;11.40;99.90;;;;;;4951371;29;20201;-85
2022/10/13 03:40:24;;;;;;;20.03;18.00;;;11.40;99.90;;;;;;4950792;29;20221;-83
2022/10/13 03:42:51;;;;;;;20.97;19.27;;;11.40;99.90;;;;;;4950718;29;20213;-84
2022/10/13 03:45:18;;;;;;;22.20;20.30;;;11.40;99.90;;;;;;4950767;29;20253;-83
2022/10/13 03:47:45;;;;;;;20.97;19.23;;;11.40;99.90;;;;;;4955586;28;20182;-83
2022/10/13 03:50:12;;;;;;;23.13;21.13;;;11.40;99.90;;;;;;4954439;29;20193;-87
2022/10/13 03:52:39;;;;;;;21.00;19.33;;;11.40;99.90;;;;;;4940355;29;20216;-85
2022/10/13 03:55:07;;;;;;;18.77;17.40;;;11.40;99.90;;;;;;4954046;28;20227;-88
2022/10/13 03:57:35;;;;;;;20.77;19.27;;;11.40;99.90;;;;;;4949942;28;20195;-87
2022/10/13 04:00:02;;;;;;;18.90;17.50;;;11.30;99.90;;;;;;4962767;28;20184;-86
2022/10/13 04:02:39;;;;;;;19.20;17.60;;;11.20;99.90;;;;;;4959812;28;20216;-88
2022/10/13 04:05:06;;;;;;;19.73;18.03;;;11.10;99.90;;;;;;4942046;28;20293;-85
2022/10/13 04:07:33;;;;;;;20.10;18.57;;;11.00;99.90;;;;;;4958398;28;20216;-86
2022/10/13 04:10:07;;;;;;;20.83;19.17;;;11.00;99.90;;;;;;4942384;29;20181;-88
2022/10/13 04:12:35;;;;;;;20.87;19.17;;;11.00;99.90;;;;;;4948946;28;20201;-88
2022/10/13 04:15:03;;;;;;;19.97;18.43;;;10.80;99.90;;;;;;4942711;29;20176;-83
2022/10/13 04:17:30;;;;;;;21.07;19.47;;;10.70;99.90;;;;;;4942832;28;20188;-84
2022/10/13 04:19:57;;;;;;;20.37;18.87;;;10.70;99.90;;;;;;4945663;28;20229;-86
2022/10/13 04:22:23;;;;;;;21.63;19.73;;;10.60;99.90;;;;;;4959320;28;20191;-86
2022/10/13 04:24:50;;;;;;;21.90;20.20;;;10.50;99.90;;;;;;4945865;29;20224;-85
2022/10/13 04:27:18;;;;;;;22.60;20.70;;;10.50;99.90;;;;;;4971348;28;20199;-85
2022/10/13 04:29:47;;;;;;;23.33;21.37;;;10.40;99.90;;;;;;4956774;29;20222;-87
2022/10/13 04:32:13;;;;;;;23.13;21.33;;;10.30;99.90;;;;;;4969866;28;20251;-88
2022/10/13 04:34:40;;;;;;;21.83;20.23;;;10.30;99.90;;;;;;4969929;28;20175;-87
2022/10/13 04:37:07;;;;;;;24.03;21.97;;;10.20;99.90;;;;;;4969351;29;20223;-86
2022/10/13 04:39:34;;;;;;;22.27;20.43;;;10.10;99.90;;;;;;4947020;29;20184;-88
2022/10/13 04:42:01;;;;;;;23.63;21.37;;;10.10;99.90;;;;;;4953052;28;20214;-87
2022/10/13 04:44:30;;;;;;;23.33;21.37;;;10.00;99.90;;;;;;4955335;29;20211;-86
2022/10/13 04:46:59;;;;;;;22.10;20.37;;;9.90;99.90;;;;;;4953847;29;20225;-82
2022/10/13 04:49:26;;;;;;;22.97;21.27;;;9.80;99.90;;;;;;4966609;28;20239;-83
2022/10/13 04:51:53;;;;;;;24.33;22.13;;;9.80;99.90;;;;;;4927974;29;20215;-82
2022/10/13 04:54:20;;;;;;;23.63;21.73;;;9.80;99.90;;;;;;4940688;29;20200;-83
2022/10/13 04:56:47;;;;;;;24.27;22.30;;;9.80;99.90;;;;;;4924587;29;20236;-83
2022/10/13 04:59:14;;;;;;;24.23;22.13;;;9.70;99.90;;;;;;4924539;29;20323;-83
2022/10/13 05:01:41;;;;;;;24.73;22.37;;;9.70;99.90;;;;;;4923860;29;20200;-83
2022/10/13 05:04:14;;;;;;;23.70;21.70;;;9.60;99.90;;;;;;4923459;29;20227;-82
2022/10/13 05:06:42;;;;;;;24.40;22.40;;;9.50;99.90;;;;;;4940456;29;20227;-83
2022/10/13 05:09:14;;;;;;;23.37;21.57;;;9.50;99.90;;;;;;4946400;29;20207;-83
2022/10/13 05:11:41;;;;;;;24.50;22.33;;;9.50;99.90;;;;;;4931373;29;20207;-83
2022/10/13 05:14:08;;;;;;;24.73;22.63;;;9.50;99.90;;;;;;4929895;29;20551;-83
2022/10/13 05:16:35;;;;;;;23.70;21.87;;;9.50;99.90;;;;;;4928033;29;20286;-83
2022/10/13 05:19:02;;;;;;;24.23;22.20;;;9.40;99.90;;;;;;4945043;29;20205;-83
2022/10/13 05:21:30;;;;;;;25.13;22.70;;;9.30;99.90;;;;;;4926330;29;20195;-83
2022/10/13 05:23:58;;;;;;;26.23;23.93;;;9.10;99.90;;;;;;4929657;29;20215;-84
2022/10/13 05:26:30;;;;;;;25.23;23.00;;;9.10;99.90;;;;;;4937536;29;20219;-85
2022/10/13 05:28:58;;;;;;;23.67;21.77;;;9.10;99.90;;;;;;4930919;29;20302;-83
2022/10/13 05:31:30;;;;;;;23.50;21.50;;;9.00;99.90;;;;;;4924553;29;20210;-83
2022/10/13 05:33:59;;;;;;;25.33;23.03;;;9.10;99.90;;;;;;4929100;29;20218;-83
2022/10/13 05:36:28;;;;;;;24.80;22.60;;;9.20;99.90;;;;;;4934694;29;20270;-85
2022/10/13 05:38:58;;;;;;;24.33;22.23;;;9.30;99.90;;;;;;4935634;29;20630;-83
2022/10/13 05:41:27;;;;;;;24.00;22.00;;;9.40;99.90;;;;;;4928479;29;20806;-83
2022/10/13 05:43:56;;;;;;;24.17;22.17;;;9.60;99.90;;;;;;4934483;29;20203;-83
2022/10/13 05:46:23;;;;;;;25.33;23.13;;;9.60;99.90;;;;;;4935979;29;20503;-83
2022/10/13 05:48:50;;;;;;;24.93;22.60;;;9.70;99.90;;;;;;4934050;29;20209;-86
2022/10/13 05:51:21;;;;;;;25.73;23.37;;;9.70;99.90;;;;;;4948127;29;20194;-83
2022/10/13 05:53:51;;;;;;;24.53;22.37;;;9.80;99.90;;;;;;4932882;29;20261;-84
2022/10/13 05:56:22;;;;;;;24.23;22.03;;;9.80;99.90;;;;;;4947402;29;20735;-85
2022/10/13 05:58:52;;;;;;;23.07;21.17;;;9.90;99.90;;;;;;4928388;29;20203;-83
2022/10/13 06:01:24;;;;;;;22.07;20.43;;;9.90;99.90;;;;;;4930717;29;20207;-83
2022/10/13 06:03:53;;;;;;;23.07;21.07;;;9.90;99.90;;;;;;4945115;28;20206;-85
2022/10/13 06:06:22;;;;;;;24.27;22.00;;;9.90;99.90;;;;;;4928460;29;20234;-83
2022/10/13 06:08:50;;;;;;;23.67;21.67;;;10.00;99.90;;;;;;4946342;29;20661;-83
2022/10/13 06:11:17;;;;;;;23.37;21.17;;;10.00;99.90;;;;;;4922655;29;20199;-83
2022/10/13 06:13:45;;;;;;;22.97;20.93;;;10.00;99.90;;;;;;4933591;29;20213;-84
2022/10/13 06:16:12;;;;;;;21.03;19.33;;;10.00;99.90;;;;;;4930771;29;20219;-85
2022/10/13 06:18:39;;;;;;;22.03;20.13;;;10.10;99.90;;;;;;4928985;29;20195;-81
2022/10/13 06:21:06;;;;;;;21.47;19.87;;;10.20;99.90;;;;;;4921652;29;20211;-81
2022/10/13 06:23:33;;;;;;;20.47;18.87;;;10.30;99.90;;;;;;4932588;29;20301;-81
2022/10/13 06:25:59;;;;;;;20.43;18.87;;;10.40;99.90;;;;;;4947236;29;20218;-81
2022/10/13 06:28:27;;;;;;;18.60;17.03;;;10.50;99.90;;;;;;4939586;28;20198;-81
2022/10/13 06:30:56;;;;;;;18.73;17.33;;;10.70;99.90;;;;;;4923480;29;20195;-81
2022/10/13 06:33:23;;;;;;;18.87;17.27;;;11.00;99.90;;;;;;4924388;29;20246;-81
2022/10/13 06:35:50;;;;;;;17.93;16.53;;;11.10;99.90;;;;;;4925014;29;20226;-81
2022/10/13 06:38:17;;;;;;;17.70;16.40;;;11.30;99.90;;;;;;4921009;29;20207;-81
2022/10/13 06:40:48;;;;;;;13.70;12.40;;;11.40;99.90;;;;;;4926709;28;20208;-81
2022/10/13 06:43:14;;;;;;;11.97;10.83;;;11.50;99.90;;;;;;4920918;29;20215;-81
2022/10/13 06:45:41;;;;;;;13.50;12.40;;;11.60;99.90;;;;;;4918651;29;20251;-81
2022/10/13 06:48:10;;;;;;;9.60;8.70;;;11.60;99.90;;;;;;4920429;29;20212;-81
2022/10/13 06:50:36;;;;;;;12.63;11.63;;;11.70;99.90;;;;;;4946179;28;20253;-82
2022/10/13 06:53:03;;;;;;;13.00;12.00;;;11.80;99.90;;;;;;4946348;28;20204;-81
2022/10/13 06:55:30;;;;;;;16.47;15.27;;;11.80;99.90;;;;;;4941070;28;20592;-81
2022/10/13 06:57:57;;;;;;;17.20;15.77;;;11.90;99.90;;;;;;4922783;29;20208;-81
2022/10/13 07:00:24;;;;;;;20.33;18.93;;;12.00;99.90;;;;;;4924082;29;20224;-81
2022/10/13 07:02:52;;;;;;;17.37;16.00;;;12.00;99.90;;;;;;4925506;29;20198;-81
2022/10/13 07:05:20;;;;;;;16.80;15.50;;;12.10;99.90;;;;;;4927255;28;20311;-81
2022/10/13 07:07:47;;;;;;;14.30;13.10;;;12.20;99.90;;;;;;4918475;28;20214;-81
2022/10/13 07:10:14;;;;;;;14.67;13.47;;;12.40;99.90;;;;;;4920015;29;20199;-81
2022/10/13 07:12:41;;;;;;;16.27;15.07;;;12.50;99.90;;;;;;4944679;28;20194;-81
2022/10/13 07:15:08;;;;;;;16.07;14.53;;;12.70;99.90;;;;;;4920782;29;20212;-80
2022/10/13 07:17:35;;;;;;;13.93;12.73;;;12.90;99.90;;;;;;4925627;29;20209;-79
2022/10/13 07:20:03;;;;;;;12.03;8.90;;;13.00;99.90;;;;;;4925135;28;20205;-80
2022/10/13 07:22:31;;;;;;;11.07;8.70;;;13.10;99.90;;;;;;4943278;28;20277;-81
2022/10/13 07:24:58;;;;;;;11.93;9.30;;;13.20;99.90;;;;;;4924893;29;20226;-81
2022/10/13 07:27:27;;;;;;;10.23;9.20;;;13.10;99.90;;;;;;4922135;28;20788;-81
2022/10/13 07:29:53;;;;;;;11.73;10.67;;;13.00;99.90;;;;;;4921708;29;20203;-80
2022/10/13 07:32:20;;;;;;;11.30;10.20;;;13.00;99.90;;;;;;4929675;29;20254;-81
2022/10/13 07:34:47;;;;;;;11.17;10.17;;;13.00;99.90;;;;;;4950125;29;20196;-81
2022/10/13 07:37:14;;;;;;;11.87;10.67;;;13.00;99.90;;;;;;4932225;29;20258;-81
2022/10/13 07:39:42;;;;;;;14.17;12.97;;;13.00;99.90;;;;;;4927187;29;20207;-81
2022/10/13 07:42:09;;;;;;;13.73;12.43;;;13.10;99.90;;;;;;4922842;29;20242;-81
2022/10/13 07:44:36;;;;;;;17.40;15.90;;;13.10;99.90;;;;;;4923245;29;20223;-81
2022/10/13 07:47:02;;;;;;;10.23;8.80;;;13.20;99.90;;;;;;4921747;29;20235;-79
2022/10/13 07:49:29;;;;;;;9.33;8.20;;;13.40;99.90;;;;;;4949496;28;20199;-81
2022/10/13 07:51:56;;;;;;;13.03;11.93;;;13.50;99.90;;;;;;4948932;28;20195;-81
2022/10/13 07:54:23;;;;;;;9.90;8.77;;;13.60;99.90;;;;;;4949875;28;20210;-81
2022/10/13 07:56:53;;;;;;;14.03;12.47;;;13.70;99.90;;;;;;4952660;28;20214;-81
2022/10/13 07:59:20;;;;;;;15.60;14.23;;;13.70;99.90;;;;;;4929841;29;20272;-80
2022/10/13 08:01:47;;;;;;;16.37;15.00;;;13.70;99.90;;;;;;4947235;28;20200;-81
2022/10/13 08:04:13;;;;;;;10.97;9.97;;;13.70;99.90;;;;;;4950906;28;20227;-81
2022/10/13 08:06:41;;;;;;;14.93;13.73;;;13.70;99.90;;;;;;4933698;28;20586;-80
2022/10/13 08:09:09;;;;;;;10.00;8.47;;;13.80;99.90;;;;;;4951113;29;20691;-80
2022/10/13 08:11:36;;;;;;;11.10;9.43;;;13.70;99.90;;;;;;4952847;28;20197;-81
2022/10/13 08:14:04;;;;;;;10.27;8.07;;;13.70;99.90;;;;;;4928327;29;20239;-81
2022/10/13 08:16:32;;;;;;;9.07;8.17;;;13.80;99.90;;;;;;4932640;29;20219;-81
2022/10/13 08:18:59;;;;;;;9.23;8.03;;;13.90;99.90;;;;;;4955085;28;20637;-81
2022/10/13 08:21:28;;;;;;;10.83;8.27;;;14.10;99.90;;;;;;4926007;29;20475;-81
2022/10/13 08:23:55;;;;;;;13.13;12.03;;;14.20;99.90;;;;;;4949790;28;20203;-81
2022/10/13 08:26:24;;;;;;;14.17;12.97;;;14.40;99.90;;;;;;4951086;28;20235;-81
2022/10/13 08:28:51;;;;;;;15.20;12.10;;;14.60;99.90;;;;;;4930317;29;20269;-81
2022/10/13 08:31:20;;;;;;;12.77;11.40;;;14.60;99.90;;;;;;4949115;28;20619;-82
2022/10/13 08:33:47;;;;;;;13.83;12.73;;;14.60;99.90;;;;;;4949674;28;20192;-81
2022/10/13 08:36:16;;;;;;;12.10;10.90;;;14.80;99.90;;;;;;4925643;29;20218;-79
2022/10/13 08:38:43;;;;;;;14.77;13.53;;;14.90;99.90;;;;;;4927534;29;20207;-80
2022/10/13 08:41:16;;;;;;;15.00;13.80;;;14.90;99.90;;;;;;4924764;29;20281;-79
2022/10/13 08:43:49;;;;;;;15.83;14.53;;;14.90;99.90;;;;;;4932298;29;20202;-79
2022/10/13 08:46:24;;;;;;;13.80;12.70;;;15.00;99.90;;;;;;4946637;29;20254;-79
2022/10/13 08:48:51;;;;;;;10.33;9.20;;;15.00;99.90;;;;;;4935046;29;20209;-80
2022/10/13 08:51:18;;;;;;;13.00;11.57;;;15.00;99.90;;;;;;4939815;28;20579;-79
2022/10/13 08:53:47;;;;;;;10.07;9.07;;;15.10;99.90;;;;;;4939378;29;20609;-79
2022/10/13 08:56:19;;;;;;;11.87;10.77;;;15.20;99.90;;;;;;4929268;29;20222;-80
2022/10/13 08:58:47;;;;;;;15.47;13.97;;;15.30;99.90;;;;;;4949725;28;20247;-81
2022/10/13 09:01:15;;;;;;;15.33;13.93;;;15.40;99.90;;;;;;4944731;28;20682;-81
2022/10/13 09:03:50;;;;;;;14.20;12.77;;;15.40;99.90;;;;;;4927965;29;20207;-81
2022/10/13 09:06:26;;;;;;;14.30;13.10;;;15.50;99.90;;;;;;4930827;29;20236;-81
2022/10/13 09:08:55;;;;;;;14.77;13.67;;;15.60;99.90;;;;;;4945112;28;20198;-81
2022/10/13 09:11:22;;;;;;;14.17;12.97;;;15.60;99.90;;;;;;4947968;28;20697;-81
2022/10/13 09:13:54;;;;;;;15.43;13.93;;;15.60;99.90;;;;;;4929578;29;20230;-81
2022/10/13 09:16:27;;;;;;;14.83;13.63;;;15.70;99.90;;;;;;4925370;29;20217;-81
2022/10/13 09:18:55;;;;;;;12.47;11.40;;;15.70;99.90;;;;;;4928216;28;20242;-81
2022/10/13 09:21:24;;;;;;;10.00;9.03;;;15.70;99.90;;;;;;4923553;29;20223;-82
2022/10/13 09:23:52;;;;;;;9.73;8.80;;;15.80;99.90;;;;;;4928138;29;20292;-81
2022/10/13 09:26:22;;;;;;;12.73;11.53;;;15.90;99.90;;;;;;4946594;28;20229;-81
2022/10/13 09:28:51;;;;;;;11.83;10.63;;;15.80;99.90;;;;;;4943579;28;20190;-81
2022/10/13 09:31:23;;;;;;;10.60;9.27;;;15.90;99.90;;;;;;4945813;28;20206;-81
2022/10/13 09:33:58;;;;;;;11.67;10.33;;;15.90;99.90;;;;;;4944324;28;20213;-81
2022/10/13 09:36:25;;;;;;;11.90;10.70;;;15.80;99.90;;;;;;4929662;29;20215;-81
2022/10/13 09:39:06;;;;;;;12.07;10.23;;;15.90;99.90;;;;;;4938922;29;20199;-81
2022/10/13 09:41:34;;;;;;;12.13;10.93;;;15.90;99.90;;;;;;4927596;29;20578;-82
2022/10/13 09:44:11;;;;;;;13.93;12.80;;;15.90;99.90;;;;;;4926891;29;20219;-81
2022/10/13 09:46:44;;;;;;;14.50;13.37;;;15.90;99.90;;;;;;4929267;29;20226;-81
2022/10/13 09:49:31;;;;;;;14.20;13.10;;;15.90;99.90;;;;;;4928376;29;20214;-81
2022/10/13 09:52:02;;;;;;;13.67;12.57;;;16.00;99.90;;;;;;4924639;29;20213;-81
2022/10/13 09:54:42;;;;;;;13.63;12.50;;;16.00;99.90;;;;;;4923475;29;20212;-81
2022/10/13 09:57:18;;;;;;;13.90;12.80;;;16.00;99.90;;;;;;4925609;29;20226;-83
2022/10/13 09:59:49;;;;;;;16.10;13.17;;;16.00;99.90;;;;;;4931948;29;20202;-81
2022/10/13 10:02:23;;;;;;;14.53;13.33;;;16.00;99.90;;;;;;4928943;28;20230;-82
2022/10/13 10:04:52;;;;;;;13.80;12.60;;;16.10;99.90;;;;;;4920293;28;20195;-82
2022/10/13 10:07:25;;;;;;;13.37;12.23;;;16.20;99.90;;;;;;4946145;29;20226;-82
2022/10/13 10:09:57;;;;;;;15.90;14.40;;;16.40;99.90;;;;;;4927349;29;20664;-82
2022/10/13 10:12:28;;;;;;;15.57;14.03;;;16.50;99.90;;;;;;4923956;29;20465;-82
2022/10/13 10:14:55;;;;;;;15.23;13.83;;;16.60;99.90;;;;;;4947636;28;20203;-81
2022/10/13 10:17:30;;;;;;;14.97;13.73;;;16.60;99.90;;;;;;4943685;28;20763;-81
2022/10/13 10:20:10;;;;;;;14.77;13.37;;;16.60;99.90;;;;;;4922183;29;20206;-81
2022/10/13 10:22:44;;;;;;;15.50;14.20;;;16.60;99.90;;;;;;4924980;29;20429;-81
2022/10/13 10:25:26;;;;;;;10.40;6.37;;;16.70;99.90;;;;;;4922941;29;20229;-80
2022/10/13 10:28:05;;;;;;;12.10;9.13;;;16.80;99.90;;;;;;4923609;29;20329;-82
2022/10/13 10:30:36;;;;;;;12.50;11.37;;;16.70;99.90;;;;;;4929058;29;20246;-82
2022/10/13 10:33:09;;;;;;;16.50;14.93;;;16.80;99.90;;;;;;4936355;28;20211;-82
2022/10/13 10:35:44;;;;;;;15.07;13.57;;;16.80;99.90;;;;;;4927176;29;20250;-78
2022/10/13 10:38:26;;;;;;;8.83;7.60;;;16.70;99.90;;;;;;4945615;28;20226;-82
2022/10/13 10:40:59;;;;;;;9.33;6.63;;;16.80;99.90;;;;;;4936570;28;20260;-81
2022/10/13 10:43:48;;;;;;;9.47;6.33;;;16.70;99.90;;;;;;4931632;28;20201;-83
2022/10/13 10:46:20;;;;;;;7.13;6.40;;;16.60;99.90;;;;;;4931500;29;20218;-85
2022/10/13 10:48:49;;;;;;;8.73;6.90;;;16.60;99.90;;;;;;4937483;29;20207;-81
2022/10/13 10:51:18;;;;;;;10.40;6.60;;;16.50;99.90;;;;;;4946334;29;20252;-80
2022/10/13 10:53:55;;;;;;;7.67;6.10;;;16.50;99.90;;;;;;4944288;28;20199;-81
2022/10/13 10:56:31;;;;;;;8.03;6.40;;;16.60;99.90;;;;;;4925729;29;20240;-81
2022/10/13 10:59:12;;;;;;;7.43;6.27;;;16.60;99.90;;;;;;4922601;29;20199;-81
2022/10/13 11:01:45;;;;;;;10.33;6.83;;;16.60;99.90;;;;;;4943811;28;20278;-80
2022/10/13 11:04:39;;;;;;;9.77;6.70;;;16.60;99.90;;;;;;4928934;29;20648;-80
2022/10/13 11:07:11;;;;;;;8.63;6.40;;;16.60;99.90;;;;;;4929849;29;20230;-80
2022/10/13 11:10:16;;;;;;;7.50;6.17;;;16.60;99.90;;;;;;4921723;29;20209;-81
2022/10/13 11:13:20;;;;;;;8.00;6.30;;;16.70;99.90;;;;;;4931051;29;20738;-80
2022/10/13 11:15:48;;;;;;;9.27;6.80;;;16.70;99.90;;;;;;4926998;29;20293;-78
2022/10/13 11:18:52;;;;;;;9.80;6.63;;;16.80;99.90;;;;;;4931377;29;20206;-79
2022/10/13 11:21:20;;;;;;;11.90;10.60;;;16.80;99.90;;;;;;4930226;28;20209;-81
2022/10/13 11:23:49;;;;;;;13.80;12.40;;;16.90;99.90;;;;;;4950855;28;20660;-79
2022/10/13 11:26:42;;;;;;;15.47;14.20;;;17.00;99.90;;;;;;4945326;28;20289;-78
2022/10/13 11:29:39;;;;;;;14.73;13.63;;;17.00;99.90;;;;;;4955264;28;20619;-79
2022/10/13 11:32:41;;;;;;;7.37;6.53;;;17.10;99.90;;;;;;4930984;29;20203;-79
2022/10/13 11:35:21;;;;;;;13.53;7.30;;;17.20;99.90;;;;;;4936051;29;20285;-79
2022/10/13 11:38:11;;;;;;;12.53;11.33;;;17.30;99.90;;;;;;4933790;29;20202;-79
2022/10/13 11:40:45;;;;;;;13.43;12.33;;;17.30;99.90;;;;;;4941015;28;20208;-79
2022/10/13 11:43:28;;;;;;;12.43;11.43;;;17.40;99.90;;;;;;4949893;28;20194;-79
2022/10/13 11:46:24;;;;;;;14.67;13.37;;;17.50;99.90;;;;;;4925555;29;20231;-79
2022/10/13 11:49:17;;;;;;;14.70;13.50;;;17.50;99.90;;;;;;4925204;29;20231;-79
2022/10/13 11:52:06;;;;;;;10.20;6.67;;;17.50;99.90;;;;;;4936118;28;20202;-79
2022/10/13 11:54:37;;;;;;;12.20;7.33;;;17.60;99.90;;;;;;4937473;29;20202;-80
2022/10/13 11:57:18;;;;;;;10.77;6.70;;;17.70;99.90;;;;;;4925949;29;20588;-79
2022/10/13 11:59:47;;;;;;;8.57;6.37;;;17.70;99.90;;;;;;4952212;28;20200;-79
2022/10/13 12:02:16;;;;;;;10.13;6.80;;;17.80;99.90;;;;;;4948697;28;20231;-78
2022/10/13 12:04:58;;;;;;;8.97;6.23;;;17.80;99.90;;;;;;4947078;28;20260;-79
2022/10/13 12:07:29;;;;;;;10.00;6.43;;;17.80;99.90;;;;;;4952266;28;20223;-79
2022/10/13 12:09:57;;;;;;;10.70;8.60;;;17.80;99.90;;;;;;4946749;28;20812;-79
2022/10/13 12:12:26;;;;;;;12.17;11.07;;;17.80;99.90;;;;;;4953116;28;20200;-79
2022/10/13 12:14:54;;;;;;;12.40;11.27;;;17.80;99.90;;;;;;4921724;29;20211;-79
2022/10/13 12:17:30;;;;;;;13.40;11.83;;;17.80;99.90;;;;;;4955409;28;20215;-79
2022/10/13 12:20:00;;;;;;;12.50;11.50;;;17.80;99.90;;;;;;4921801;29;20235;-79
2022/10/13 12:22:29;;;;;;;13.03;11.87;;;17.90;99.90;;;;;;4925681;29;20200;-79
2022/10/13 12:24:58;;;;;;;12.10;11.20;;;17.90;99.90;;;;;;4949185;28;20200;-79
2022/10/13 12:27:26;;;;;;;12.07;11.17;;;18.00;99.90;;;;;;4949781;28;20214;-79
2022/10/13 12:29:53;;;;;;;12.83;11.83;;;18.20;99.90;;;;;;4949851;28;20678;-79
2022/10/13 12:32:21;;;;;;;9.07;6.37;;;18.30;99.90;;;;;;4924017;29;20204;-79
2022/10/13 12:34:49;;;;;;;8.03;6.60;;;18.30;99.90;;;;;;4950914;28;20205;-79
2022/10/13 12:37:26;;;;;;;8.77;6.27;;;18.10;99.90;;;;;;4931285;29;20654;-79
2022/10/13 12:39:53;;;;;;;7.33;5.83;;;18.20;99.90;;;;;;4925546;28;20308;-79
2022/10/13 12:42:25;;;;;;;11.03;10.23;;;18.20;99.90;;;;;;4924125;29;20208;-79
2022/10/13 12:44:52;;;;;;;13.87;12.60;;;18.30;99.90;;;;;;4949875;28;20198;-79
2022/10/13 12:47:40;;;;;;;13.30;12.20;;;18.40;99.90;;;;;;4948866;28;20225;-80
2022/10/13 12:50:37;;;;;;;12.17;11.07;;;18.60;99.90;;;;;;4948957;28;20663;-79